sensor_id;sensor_type;location;lat;lon;timestamp;P1;durP1;ratioP1;P2;durP2;ratioP2
61104;SDS011;46987;32.638;-115.438;2022-09-09T00:00:19;8.32;;;1.73;;
61104;SDS011;46987;32.638;-115.438;2022-09-09T00:02:52;7.95;;;2.05;;
61104;SDS011;46987;32.638;-115.438;2022-09-09T00:05:28;7.63;;;1.98;;
61104;SDS011;46987;32.638;-115.438;2022-09-09T00:08:00;15.35;;;2.42;;
61104;SDS011;46987;32.638;-115.438;2022-09-09T00:10:30;10.52;;;1.98;;
61104;SDS011;46987;32.638;-115.438;2022-09-09T00:13:01;8.52;;;2.00;;
61104;SDS011;46987;32.638;-115.438;2022-09-09T00:15:44;11.60;;;1.98;;
61104;SDS011;46987;32.638;-115.438;2022-09-09T00:18:23;7.78;;;1.67;;
61104;SDS011;46987;32.638;-115.438;2022-09-09T00:20:56;12.98;;;2.08;;
61104;SDS011;46987;32.638;-115.438;2022-09-09T00:23:30;10.95;;;1.58;;
61104;SDS011;46987;32.638;-115.438;2022-09-09T00:26:02;15.02;;;2.20;;
61104;SDS011;46987;32.638;-115.438;2022-09-09T00:28:36;9.45;;;2.10;;
61104;SDS011;46987;32.638;-115.438;2022-09-09T00:31:13;7.65;;;1.75;;
61104;SDS011;46987;32.638;-115.438;2022-09-09T00:33:48;13.05;;;2.30;;
61104;SDS011;46987;32.638;-115.438;2022-09-09T00:36:17;11.52;;;2.20;;
61104;SDS011;46987;32.638;-115.438;2022-09-09T00:38:49;11.85;;;1.80;;
61104;SDS011;46987;32.638;-115.438;2022-09-09T00:41:22;9.63;;;2.45;;
61104;SDS011;46987;32.638;-115.438;2022-09-09T00:44:03;10.18;;;2.47;;
61104;SDS011;46987;32.638;-115.438;2022-09-09T00:46:48;10.95;;;2.58;;
61104;SDS011;46987;32.638;-115.438;2022-09-09T00:49:28;11.00;;;2.97;;
61104;SDS011;46987;32.638;-115.438;2022-09-09T00:52:08;12.77;;;2.42;;
61104;SDS011;46987;32.638;-115.438;2022-09-09T00:54:45;13.23;;;2.15;;
61104;SDS011;46987;32.638;-115.438;2022-09-09T00:57:28;12.40;;;2.70;;
61104;SDS011;46987;32.638;-115.438;2022-09-09T00:59:58;12.35;;;3.17;;
61104;SDS011;46987;32.638;-115.438;2022-09-09T01:02:43;11.10;;;2.92;;
61104;SDS011;46987;32.638;-115.438;2022-09-09T01:05:33;14.02;;;2.65;;
61104;SDS011;46987;32.638;-115.438;2022-09-09T01:08:11;16.58;;;3.30;;
61104;SDS011;46987;32.638;-115.438;2022-09-09T01:10:50;11.50;;;2.95;;
61104;SDS011;46987;32.638;-115.438;2022-09-09T01:13:24;12.25;;;2.40;;
61104;SDS011;46987;32.638;-115.438;2022-09-09T01:15:53;14.23;;;2.83;;
61104;SDS011;46987;32.638;-115.438;2022-09-09T01:18:21;13.10;;;2.50;;
61104;SDS011;46987;32.638;-115.438;2022-09-09T01:20:58;17.27;;;3.00;;
61104;SDS011;46987;32.638;-115.438;2022-09-09T01:23:40;8.70;;;2.38;;
61104;SDS011;46987;32.638;-115.438;2022-09-09T01:26:25;7.97;;;2.35;;
61104;SDS011;46987;32.638;-115.438;2022-09-09T01:28:58;11.90;;;2.17;;
61104;SDS011;46987;32.638;-115.438;2022-09-09T01:31:32;17.17;;;3.00;;
61104;SDS011;46987;32.638;-115.438;2022-09-09T01:34:07;13.88;;;2.47;;
61104;SDS011;46987;32.638;-115.438;2022-09-09T01:36:38;10.90;;;2.28;;
61104;SDS011;46987;32.638;-115.438;2022-09-09T01:39:11;12.95;;;2.42;;
61104;SDS011;46987;32.638;-115.438;2022-09-09T01:41:41;13.65;;;2.40;;
61104;SDS011;46987;32.638;-115.438;2022-09-09T01:44:16;11.70;;;2.20;;
61104;SDS011;46987;32.638;-115.438;2022-09-09T01:46:47;12.15;;;2.70;;
61104;SDS011;46987;32.638;-115.438;2022-09-09T01:49:17;12.65;;;2.95;;
61104;SDS011;46987;32.638;-115.438;2022-09-09T01:51:46;10.65;;;2.85;;
61104;SDS011;46987;32.638;-115.438;2022-09-09T01:54:16;15.35;;;2.75;;
61104;SDS011;46987;32.638;-115.438;2022-09-09T01:56:50;14.23;;;2.97;;
61104;SDS011;46987;32.638;-115.438;2022-09-09T01:59:33;13.48;;;2.60;;
61104;SDS011;46987;32.638;-115.438;2022-09-09T02:02:19;7.00;;;2.65;;
61104;SDS011;46987;32.638;-115.438;2022-09-09T02:05:09;11.30;;;2.30;;
61104;SDS011;46987;32.638;-115.438;2022-09-09T02:07:49;11.48;;;2.25;;
61104;SDS011;46987;32.638;-115.438;2022-09-09T02:10:30;9.57;;;2.55;;
61104;SDS011;46987;32.638;-115.438;2022-09-09T02:13:15;12.35;;;3.17;;
61104;SDS011;46987;32.638;-115.438;2022-09-09T02:18:15;13.50;;;3.40;;
61104;SDS011;46987;32.638;-115.438;2022-09-09T02:20:52;16.73;;;4.32;;
61104;SDS011;46987;32.638;-115.438;2022-09-09T02:23:20;16.58;;;4.35;;
61104;SDS011;46987;32.638;-115.438;2022-09-09T02:25:51;20.30;;;4.15;;
61104;SDS011;46987;32.638;-115.438;2022-09-09T02:28:27;13.35;;;4.15;;
61104;SDS011;46987;32.638;-115.438;2022-09-09T02:33:33;17.63;;;5.13;;
61104;SDS011;46987;32.638;-115.438;2022-09-09T02:36:06;13.02;;;4.30;;
61104;SDS011;46987;32.638;-115.438;2022-09-09T02:38:37;15.73;;;5.22;;
61104;SDS011;46987;32.638;-115.438;2022-09-09T02:41:12;12.43;;;4.25;;
61104;SDS011;46987;32.638;-115.438;2022-09-09T02:43:46;15.05;;;4.22;;
61104;SDS011;46987;32.638;-115.438;2022-09-09T02:46:19;16.87;;;4.40;;
61104;SDS011;46987;32.638;-115.438;2022-09-09T02:48:58;15.82;;;3.78;;
61104;SDS011;46987;32.638;-115.438;2022-09-09T02:51:33;18.20;;;4.18;;
61104;SDS011;46987;32.638;-115.438;2022-09-09T02:54:14;25.80;;;4.97;;
61104;SDS011;46987;32.638;-115.438;2022-09-09T02:56:51;27.38;;;6.03;;
61104;SDS011;46987;32.638;-115.438;2022-09-09T02:59:32;32.35;;;6.88;;
61104;SDS011;46987;32.638;-115.438;2022-09-09T03:02:00;19.10;;;4.95;;
61104;SDS011;46987;32.638;-115.438;2022-09-09T03:04:28;22.20;;;4.68;;
61104;SDS011;46987;32.638;-115.438;2022-09-09T03:06:57;20.02;;;4.00;;
61104;SDS011;46987;32.638;-115.438;2022-09-09T03:09:25;19.67;;;3.88;;
61104;SDS011;46987;32.638;-115.438;2022-09-09T03:11:55;26.77;;;4.45;;
61104;SDS011;46987;32.638;-115.438;2022-09-09T03:14:23;18.33;;;4.75;;
61104;SDS011;46987;32.638;-115.438;2022-09-09T03:16:53;18.50;;;4.43;;
61104;SDS011;46987;32.638;-115.438;2022-09-09T03:19:23;14.43;;;3.78;;
61104;SDS011;46987;32.638;-115.438;2022-09-09T03:21:51;19.38;;;3.90;;
61104;SDS011;46987;32.638;-115.438;2022-09-09T03:24:18;13.73;;;3.35;;
61104;SDS011;46987;32.638;-115.438;2022-09-09T03:26:46;21.33;;;3.55;;
61104;SDS011;46987;32.638;-115.438;2022-09-09T03:29:16;9.43;;;3.03;;
61104;SDS011;46987;32.638;-115.438;2022-09-09T03:31:45;15.02;;;4.38;;
61104;SDS011;46987;32.638;-115.438;2022-09-09T03:34:15;13.65;;;4.20;;
61104;SDS011;46987;32.638;-115.438;2022-09-09T03:36:42;16.05;;;3.92;;
61104;SDS011;46987;32.638;-115.438;2022-09-09T03:39:10;18.77;;;4.32;;
61104;SDS011;46987;32.638;-115.438;2022-09-09T03:41:40;14.18;;;3.47;;
61104;SDS011;46987;32.638;-115.438;2022-09-09T03:44:07;13.68;;;3.38;;
61104;SDS011;46987;32.638;-115.438;2022-09-09T03:46:40;22.70;;;4.28;;
61104;SDS011;46987;32.638;-115.438;2022-09-09T03:49:08;17.08;;;3.55;;
61104;SDS011;46987;32.638;-115.438;2022-09-09T03:51:37;19.67;;;3.83;;
61104;SDS011;46987;32.638;-115.438;2022-09-09T03:54:06;12.38;;;2.90;;
61104;SDS011;46987;32.638;-115.438;2022-09-09T03:56:36;16.60;;;3.83;;
61104;SDS011;46987;32.638;-115.438;2022-09-09T03:59:05;16.15;;;3.28;;
61104;SDS011;46987;32.638;-115.438;2022-09-09T04:01:32;10.25;;;2.53;;
61104;SDS011;46987;32.638;-115.438;2022-09-09T04:04:00;15.27;;;2.90;;
61104;SDS011;46987;32.638;-115.438;2022-09-09T04:06:28;13.95;;;2.97;;
61104;SDS011;46987;32.638;-115.438;2022-09-09T04:08:58;18.52;;;2.67;;
61104;SDS011;46987;32.638;-115.438;2022-09-09T04:11:30;17.27;;;3.47;;
61104;SDS011;46987;32.638;-115.438;2022-09-09T04:13:59;11.55;;;2.78;;
61104;SDS011;46987;32.638;-115.438;2022-09-09T04:16:28;12.52;;;3.45;;
61104;SDS011;46987;32.638;-115.438;2022-09-09T04:18:56;14.07;;;3.33;;
61104;SDS011;46987;32.638;-115.438;2022-09-09T04:21:24;11.55;;;3.03;;
61104;SDS011;46987;32.638;-115.438;2022-09-09T04:23:52;14.45;;;3.40;;
61104;SDS011;46987;32.638;-115.438;2022-09-09T04:26:22;11.70;;;3.40;;
61104;SDS011;46987;32.638;-115.438;2022-09-09T04:28:50;14.48;;;3.35;;
61104;SDS011;46987;32.638;-115.438;2022-09-09T04:31:19;14.88;;;4.00;;
61104;SDS011;46987;32.638;-115.438;2022-09-09T04:36:19;14.65;;;3.13;;
61104;SDS011;46987;32.638;-115.438;2022-09-09T04:38:48;7.85;;;2.58;;
61104;SDS011;46987;32.638;-115.438;2022-09-09T04:41:16;13.13;;;2.60;;
61104;SDS011;46987;32.638;-115.438;2022-09-09T04:43:48;8.75;;;2.25;;
61104;SDS011;46987;32.638;-115.438;2022-09-09T04:46:16;10.23;;;2.17;;
61104;SDS011;46987;32.638;-115.438;2022-09-09T04:48:44;10.75;;;2.58;;
61104;SDS011;46987;32.638;-115.438;2022-09-09T04:51:12;13.85;;;2.70;;
61104;SDS011;46987;32.638;-115.438;2022-09-09T04:53:41;13.32;;;3.22;;
61104;SDS011;46987;32.638;-115.438;2022-09-09T04:56:11;15.68;;;4.55;;
61104;SDS011;46987;32.638;-115.438;2022-09-09T04:58:44;14.77;;;4.47;;
61104;SDS011;46987;32.638;-115.438;2022-09-09T05:01:14;18.88;;;5.32;;
61104;SDS011;46987;32.638;-115.438;2022-09-09T05:06:15;15.40;;;4.95;;
61104;SDS011;46987;32.638;-115.438;2022-09-09T05:08:46;18.13;;;5.05;;
61104;SDS011;46987;32.638;-115.438;2022-09-09T05:11:19;14.55;;;3.67;;
61104;SDS011;46987;32.638;-115.438;2022-09-09T05:13:50;14.68;;;4.18;;
61104;SDS011;46987;32.638;-115.438;2022-09-09T05:16:20;7.18;;;2.20;;
61104;SDS011;46987;32.638;-115.438;2022-09-09T05:18:48;12.65;;;2.30;;
61104;SDS011;46987;32.638;-115.438;2022-09-09T05:21:20;7.93;;;2.08;;
61104;SDS011;46987;32.638;-115.438;2022-09-09T05:23:49;12.38;;;2.42;;
61104;SDS011;46987;32.638;-115.438;2022-09-09T05:26:21;6.55;;;2.08;;
61104;SDS011;46987;32.638;-115.438;2022-09-09T05:28:51;7.10;;;2.22;;
61104;SDS011;46987;32.638;-115.438;2022-09-09T05:31:21;10.32;;;2.20;;
61104;SDS011;46987;32.638;-115.438;2022-09-09T05:33:51;12.43;;;3.07;;
61104;SDS011;46987;32.638;-115.438;2022-09-09T05:36:19;9.02;;;2.25;;
61104;SDS011;46987;32.638;-115.438;2022-09-09T05:38:51;13.50;;;3.05;;
61104;SDS011;46987;32.638;-115.438;2022-09-09T05:41:24;10.63;;;2.77;;
61104;SDS011;46987;32.638;-115.438;2022-09-09T05:43:54;11.88;;;3.25;;
61104;SDS011;46987;32.638;-115.438;2022-09-09T05:46:24;13.40;;;3.20;;
61104;SDS011;46987;32.638;-115.438;2022-09-09T05:48:53;11.75;;;2.83;;
61104;SDS011;46987;32.638;-115.438;2022-09-09T05:51:27;11.52;;;2.35;;
61104;SDS011;46987;32.638;-115.438;2022-09-09T05:53:57;9.90;;;2.83;;
61104;SDS011;46987;32.638;-115.438;2022-09-09T05:56:31;9.10;;;2.97;;
61104;SDS011;46987;32.638;-115.438;2022-09-09T05:58:59;9.00;;;2.40;;
61104;SDS011;46987;32.638;-115.438;2022-09-09T06:01:31;11.05;;;2.33;;
61104;SDS011;46987;32.638;-115.438;2022-09-09T06:04:01;10.32;;;2.17;;
61104;SDS011;46987;32.638;-115.438;2022-09-09T06:06:31;7.68;;;2.10;;
61104;SDS011;46987;32.638;-115.438;2022-09-09T06:09:10;7.53;;;2.17;;
61104;SDS011;46987;32.638;-115.438;2022-09-09T06:11:41;11.88;;;2.00;;
61104;SDS011;46987;32.638;-115.438;2022-09-09T06:14:09;10.85;;;2.28;;
61104;SDS011;46987;32.638;-115.438;2022-09-09T06:16:40;6.07;;;1.58;;
61104;SDS011;46987;32.638;-115.438;2022-09-09T06:19:20;7.05;;;1.40;;
61104;SDS011;46987;32.638;-115.438;2022-09-09T06:21:50;9.40;;;2.17;;
61104;SDS011;46987;32.638;-115.438;2022-09-09T06:24:17;6.90;;;1.80;;
61104;SDS011;46987;32.638;-115.438;2022-09-09T06:26:46;5.93;;;1.67;;
61104;SDS011;46987;32.638;-115.438;2022-09-09T06:29:20;11.63;;;2.05;;
61104;SDS011;46987;32.638;-115.438;2022-09-09T06:31:49;5.93;;;1.50;;
61104;SDS011;46987;32.638;-115.438;2022-09-09T06:34:21;12.30;;;1.90;;
61104;SDS011;46987;32.638;-115.438;2022-09-09T06:36:53;13.60;;;1.60;;
61104;SDS011;46987;32.638;-115.438;2022-09-09T06:39:23;9.55;;;1.58;;
61104;SDS011;46987;32.638;-115.438;2022-09-09T06:41:52;10.00;;;1.27;;
61104;SDS011;46987;32.638;-115.438;2022-09-09T06:44:37;9.43;;;1.83;;
61104;SDS011;46987;32.638;-115.438;2022-09-09T06:47:09;8.85;;;1.58;;
61104;SDS011;46987;32.638;-115.438;2022-09-09T06:49:39;11.68;;;1.50;;
61104;SDS011;46987;32.638;-115.438;2022-09-09T06:52:09;20.35;;;2.67;;
61104;SDS011;46987;32.638;-115.438;2022-09-09T06:54:37;16.77;;;2.42;;
61104;SDS011;46987;32.638;-115.438;2022-09-09T06:57:05;26.95;;;2.55;;
61104;SDS011;46987;32.638;-115.438;2022-09-09T06:59:36;16.10;;;2.00;;
61104;SDS011;46987;32.638;-115.438;2022-09-09T07:02:03;24.73;;;3.05;;
61104;SDS011;46987;32.638;-115.438;2022-09-09T07:04:33;18.75;;;2.13;;
61104;SDS011;46987;32.638;-115.438;2022-09-09T07:07:03;17.85;;;1.65;;
61104;SDS011;46987;32.638;-115.438;2022-09-09T07:09:32;17.40;;;2.15;;
61104;SDS011;46987;32.638;-115.438;2022-09-09T07:12:00;14.18;;;1.30;;
61104;SDS011;46987;32.638;-115.438;2022-09-09T07:14:31;13.45;;;2.53;;
61104;SDS011;46987;32.638;-115.438;2022-09-09T07:17:03;14.32;;;2.00;;
61104;SDS011;46987;32.638;-115.438;2022-09-09T07:19:37;15.55;;;1.75;;
61104;SDS011;46987;32.638;-115.438;2022-09-09T07:22:05;9.13;;;1.30;;
61104;SDS011;46987;32.638;-115.438;2022-09-09T07:24:34;9.43;;;1.25;;
61104;SDS011;46987;32.638;-115.438;2022-09-09T07:27:02;22.10;;;2.70;;
61104;SDS011;46987;32.638;-115.438;2022-09-09T07:29:29;17.90;;;2.17;;
61104;SDS011;46987;32.638;-115.438;2022-09-09T07:31:57;17.58;;;2.17;;
61104;SDS011;46987;32.638;-115.438;2022-09-09T07:34:32;35.85;;;3.58;;
61104;SDS011;46987;32.638;-115.438;2022-09-09T07:37:01;24.23;;;3.10;;
61104;SDS011;46987;32.638;-115.438;2022-09-09T07:39:29;17.30;;;2.83;;
61104;SDS011;46987;32.638;-115.438;2022-09-09T07:41:57;24.65;;;3.10;;
61104;SDS011;46987;32.638;-115.438;2022-09-09T07:44:26;15.45;;;2.00;;
61104;SDS011;46987;32.638;-115.438;2022-09-09T07:47:04;16.20;;;2.03;;
61104;SDS011;46987;32.638;-115.438;2022-09-09T07:49:39;15.02;;;2.53;;
61104;SDS011;46987;32.638;-115.438;2022-09-09T07:52:09;16.10;;;1.98;;
61104;SDS011;46987;32.638;-115.438;2022-09-09T07:54:41;15.63;;;2.20;;
61104;SDS011;46987;32.638;-115.438;2022-09-09T07:57:09;12.35;;;2.33;;
61104;SDS011;46987;32.638;-115.438;2022-09-09T07:59:37;14.38;;;1.70;;
61104;SDS011;46987;32.638;-115.438;2022-09-09T08:02:04;13.32;;;2.15;;
61104;SDS011;46987;32.638;-115.438;2022-09-09T08:04:34;19.13;;;2.40;;
61104;SDS011;46987;32.638;-115.438;2022-09-09T08:07:02;16.88;;;1.98;;
61104;SDS011;46987;32.638;-115.438;2022-09-09T08:09:43;17.80;;;2.42;;
61104;SDS011;46987;32.638;-115.438;2022-09-09T08:12:17;15.57;;;1.75;;
61104;SDS011;46987;32.638;-115.438;2022-09-09T08:14:44;15.68;;;2.47;;
61104;SDS011;46987;32.638;-115.438;2022-09-09T08:17:12;26.35;;;3.50;;
61104;SDS011;46987;32.638;-115.438;2022-09-09T08:19:39;23.35;;;3.72;;
61104;SDS011;46987;32.638;-115.438;2022-09-09T08:24:39;23.38;;;4.38;;
61104;SDS011;46987;32.638;-115.438;2022-09-09T08:27:09;20.35;;;3.53;;
61104;SDS011;46987;32.638;-115.438;2022-09-09T08:29:38;28.65;;;4.30;;
61104;SDS011;46987;32.638;-115.438;2022-09-09T08:32:05;24.70;;;4.18;;
61104;SDS011;46987;32.638;-115.438;2022-09-09T08:34:34;23.05;;;4.30;;
61104;SDS011;46987;32.638;-115.438;2022-09-09T08:37:07;19.00;;;4.05;;
61104;SDS011;46987;32.638;-115.438;2022-09-09T08:39:38;18.33;;;4.03;;
61104;SDS011;46987;32.638;-115.438;2022-09-09T08:42:13;19.35;;;4.00;;
61104;SDS011;46987;32.638;-115.438;2022-09-09T08:45:00;17.17;;;3.97;;
61104;SDS011;46987;32.638;-115.438;2022-09-09T08:47:41;13.05;;;2.97;;
61104;SDS011;46987;32.638;-115.438;2022-09-09T08:50:22;12.93;;;2.10;;
61104;SDS011;46987;32.638;-115.438;2022-09-09T08:53:00;7.78;;;1.48;;
61104;SDS011;46987;32.638;-115.438;2022-09-09T08:55:35;11.85;;;2.25;;
61104;SDS011;46987;32.638;-115.438;2022-09-09T08:58:12;12.70;;;1.65;;
61104;SDS011;46987;32.638;-115.438;2022-09-09T09:00:55;11.50;;;1.90;;
61104;SDS011;46987;32.638;-115.438;2022-09-09T09:03:42;10.32;;;1.50;;
61104;SDS011;46987;32.638;-115.438;2022-09-09T09:06:16;9.98;;;1.92;;
61104;SDS011;46987;32.638;-115.438;2022-09-09T09:08:56;8.32;;;1.98;;
61104;SDS011;46987;32.638;-115.438;2022-09-09T09:11:34;9.55;;;1.67;;
61104;SDS011;46987;32.638;-115.438;2022-09-09T09:14:07;9.38;;;1.85;;
61104;SDS011;46987;32.638;-115.438;2022-09-09T09:16:38;10.45;;;1.80;;
61104;SDS011;46987;32.638;-115.438;2022-09-09T09:19:14;10.75;;;2.15;;
61104;SDS011;46987;32.638;-115.438;2022-09-09T09:21:48;9.73;;;1.93;;
61104;SDS011;46987;32.638;-115.438;2022-09-09T09:24:20;9.32;;;1.75;;
61104;SDS011;46987;32.638;-115.438;2022-09-09T09:26:53;10.30;;;1.50;;
61104;SDS011;46987;32.638;-115.438;2022-09-09T09:29:23;8.75;;;1.70;;
61104;SDS011;46987;32.638;-115.438;2022-09-09T09:31:53;8.10;;;1.67;;
61104;SDS011;46987;32.638;-115.438;2022-09-09T09:34:23;9.05;;;2.30;;
61104;SDS011;46987;32.638;-115.438;2022-09-09T09:36:52;8.32;;;1.30;;
61104;SDS011;46987;32.638;-115.438;2022-09-09T09:39:26;7.75;;;1.65;;
61104;SDS011;46987;32.638;-115.438;2022-09-09T09:41:58;7.88;;;2.00;;
61104;SDS011;46987;32.638;-115.438;2022-09-09T09:44:38;8.82;;;1.17;;
61104;SDS011;46987;32.638;-115.438;2022-09-09T09:47:12;5.45;;;0.95;;
61104;SDS011;46987;32.638;-115.438;2022-09-09T09:52:22;7.28;;;1.27;;
61104;SDS011;46987;32.638;-115.438;2022-09-09T09:54:52;6.95;;;1.77;;
61104;SDS011;46987;32.638;-115.438;2022-09-09T09:57:23;9.68;;;1.70;;
61104;SDS011;46987;32.638;-115.438;2022-09-09T10:00:04;7.80;;;2.25;;
61104;SDS011;46987;32.638;-115.438;2022-09-09T10:02:46;6.55;;;1.95;;
61104;SDS011;46987;32.638;-115.438;2022-09-09T10:05:21;9.30;;;1.95;;
61104;SDS011;46987;32.638;-115.438;2022-09-09T10:08:03;9.15;;;1.60;;
61104;SDS011;46987;32.638;-115.438;2022-09-09T10:10:36;9.13;;;1.52;;
61104;SDS011;46987;32.638;-115.438;2022-09-09T10:13:12;7.88;;;1.80;;
61104;SDS011;46987;32.638;-115.438;2022-09-09T10:15:52;8.90;;;1.65;;
61104;SDS011;46987;32.638;-115.438;2022-09-09T10:18:34;9.57;;;1.48;;
61104;SDS011;46987;32.638;-115.438;2022-09-09T10:21:15;7.90;;;1.65;;
61104;SDS011;46987;32.638;-115.438;2022-09-09T10:23:57;5.60;;;1.20;;
61104;SDS011;46987;32.638;-115.438;2022-09-09T10:26:38;8.40;;;1.40;;
61104;SDS011;46987;32.638;-115.438;2022-09-09T10:29:22;6.68;;;1.30;;
61104;SDS011;46987;32.638;-115.438;2022-09-09T10:32:02;8.52;;;1.45;;
61104;SDS011;46987;32.638;-115.438;2022-09-09T10:34:47;6.55;;;1.33;;
61104;SDS011;46987;32.638;-115.438;2022-09-09T10:37:26;11.05;;;1.83;;
61104;SDS011;46987;32.638;-115.438;2022-09-09T10:40:14;6.18;;;1.25;;
61104;SDS011;46987;32.638;-115.438;2022-09-09T10:42:59;7.47;;;1.40;;
61104;SDS011;46987;32.638;-115.438;2022-09-09T10:45:35;6.88;;;1.17;;
61104;SDS011;46987;32.638;-115.438;2022-09-09T10:48:20;10.90;;;1.40;;
61104;SDS011;46987;32.638;-115.438;2022-09-09T10:51:07;7.32;;;1.40;;
61104;SDS011;46987;32.638;-115.438;2022-09-09T10:53:46;7.82;;;1.55;;
61104;SDS011;46987;32.638;-115.438;2022-09-09T10:56:27;8.60;;;1.27;;
61104;SDS011;46987;32.638;-115.438;2022-09-09T10:58:56;8.50;;;1.65;;
61104;SDS011;46987;32.638;-115.438;2022-09-09T11:04:00;8.15;;;1.33;;
61104;SDS011;46987;32.638;-115.438;2022-09-09T11:06:33;8.40;;;1.23;;
61104;SDS011;46987;32.638;-115.438;2022-09-09T11:09:03;14.95;;;1.48;;
61104;SDS011;46987;32.638;-115.438;2022-09-09T11:11:34;11.48;;;1.48;;
61104;SDS011;46987;32.638;-115.438;2022-09-09T11:14:08;9.45;;;1.90;;
61104;SDS011;46987;32.638;-115.438;2022-09-09T11:16:41;9.70;;;1.30;;
61104;SDS011;46987;32.638;-115.438;2022-09-09T11:19:16;8.27;;;1.70;;
61104;SDS011;46987;32.638;-115.438;2022-09-09T11:21:51;14.23;;;1.20;;
61104;SDS011;46987;32.638;-115.438;2022-09-09T11:24:24;8.10;;;1.30;;
61104;SDS011;46987;32.638;-115.438;2022-09-09T11:26:57;13.65;;;1.60;;
61104;SDS011;46987;32.638;-115.438;2022-09-09T11:29:45;14.38;;;1.70;;
61104;SDS011;46987;32.638;-115.438;2022-09-09T11:32:42;6.97;;;1.60;;
61104;SDS011;46987;32.638;-115.438;2022-09-09T11:35:29;11.35;;;2.05;;
61104;SDS011;46987;32.638;-115.438;2022-09-09T11:38:18;11.10;;;1.83;;
61104;SDS011;46987;32.638;-115.438;2022-09-09T11:40:54;10.73;;;1.55;;
61104;SDS011;46987;32.638;-115.438;2022-09-09T11:43:26;11.88;;;1.80;;
61104;SDS011;46987;32.638;-115.438;2022-09-09T11:45:57;11.33;;;1.50;;
61104;SDS011;46987;32.638;-115.438;2022-09-09T11:48:30;12.30;;;1.77;;
61104;SDS011;46987;32.638;-115.438;2022-09-09T11:51:02;10.85;;;1.58;;
61104;SDS011;46987;32.638;-115.438;2022-09-09T11:53:33;12.98;;;1.50;;
61104;SDS011;46987;32.638;-115.438;2022-09-09T11:58:43;13.57;;;1.45;;
61104;SDS011;46987;32.638;-115.438;2022-09-09T12:01:36;13.55;;;2.22;;
61104;SDS011;46987;32.638;-115.438;2022-09-09T12:09:56;14.07;;;1.90;;
61104;SDS011;46987;32.638;-115.438;2022-09-09T12:12:30;13.00;;;1.40;;
61104;SDS011;46987;32.638;-115.438;2022-09-09T12:17:47;8.25;;;1.15;;
61104;SDS011;46987;32.638;-115.438;2022-09-09T12:20:17;13.32;;;2.35;;
61104;SDS011;46987;32.638;-115.438;2022-09-09T12:22:55;8.13;;;1.42;;
61104;SDS011;46987;32.638;-115.438;2022-09-09T12:25:43;13.10;;;1.55;;
61104;SDS011;46987;32.638;-115.438;2022-09-09T12:28:20;10.60;;;1.60;;
61104;SDS011;46987;32.638;-115.438;2022-09-09T12:30:53;7.87;;;1.33;;
61104;SDS011;46987;32.638;-115.438;2022-09-09T12:33:33;13.10;;;1.40;;
61104;SDS011;46987;32.638;-115.438;2022-09-09T12:36:02;14.32;;;2.13;;
61104;SDS011;46987;32.638;-115.438;2022-09-09T12:38:34;11.77;;;1.58;;
61104;SDS011;46987;32.638;-115.438;2022-09-09T12:41:02;7.95;;;1.52;;
61104;SDS011;46987;32.638;-115.438;2022-09-09T12:43:29;12.07;;;1.50;;
61104;SDS011;46987;32.638;-115.438;2022-09-09T12:45:59;12.13;;;1.73;;
61104;SDS011;46987;32.638;-115.438;2022-09-09T12:48:31;8.57;;;2.40;;
61104;SDS011;46987;32.638;-115.438;2022-09-09T12:51:02;8.95;;;1.40;;
61104;SDS011;46987;32.638;-115.438;2022-09-09T12:53:33;14.10;;;2.25;;
61104;SDS011;46987;32.638;-115.438;2022-09-09T12:56:03;7.35;;;1.45;;
61104;SDS011;46987;32.638;-115.438;2022-09-09T12:58:36;9.40;;;1.50;;
61104;SDS011;46987;32.638;-115.438;2022-09-09T13:01:05;12.00;;;2.72;;
61104;SDS011;46987;32.638;-115.438;2022-09-09T13:03:44;8.20;;;1.70;;
61104;SDS011;46987;32.638;-115.438;2022-09-09T13:06:12;10.23;;;1.60;;
61104;SDS011;46987;32.638;-115.438;2022-09-09T13:08:44;9.82;;;2.05;;
61104;SDS011;46987;32.638;-115.438;2022-09-09T13:11:12;9.57;;;1.40;;
61104;SDS011;46987;32.638;-115.438;2022-09-09T13:13:43;7.97;;;1.30;;
61104;SDS011;46987;32.638;-115.438;2022-09-09T13:16:21;8.43;;;1.50;;
61104;SDS011;46987;32.638;-115.438;2022-09-09T13:18:52;9.40;;;1.77;;
61104;SDS011;46987;32.638;-115.438;2022-09-09T13:21:19;7.47;;;2.15;;
61104;SDS011;46987;32.638;-115.438;2022-09-09T13:23:58;10.13;;;2.85;;
61104;SDS011;46987;32.638;-115.438;2022-09-09T13:26:29;8.87;;;1.63;;
61104;SDS011;46987;32.638;-115.438;2022-09-09T13:29:07;7.93;;;1.73;;
61104;SDS011;46987;32.638;-115.438;2022-09-09T13:31:44;6.18;;;1.20;;
61104;SDS011;46987;32.638;-115.438;2022-09-09T13:34:12;9.52;;;1.92;;
61104;SDS011;46987;32.638;-115.438;2022-09-09T13:36:40;7.00;;;2.08;;
61104;SDS011;46987;32.638;-115.438;2022-09-09T13:39:15;9.52;;;3.40;;
61104;SDS011;46987;32.638;-115.438;2022-09-09T13:41:46;10.05;;;3.58;;
61104;SDS011;46987;32.638;-115.438;2022-09-09T13:44:16;9.55;;;2.50;;
61104;SDS011;46987;32.638;-115.438;2022-09-09T13:46:46;8.10;;;2.28;;
61104;SDS011;46987;32.638;-115.438;2022-09-09T13:49:19;10.45;;;1.98;;
61104;SDS011;46987;32.638;-115.438;2022-09-09T13:51:48;8.48;;;2.00;;
61104;SDS011;46987;32.638;-115.438;2022-09-09T13:54:20;9.25;;;1.83;;
61104;SDS011;46987;32.638;-115.438;2022-09-09T13:56:48;10.48;;;2.30;;
61104;SDS011;46987;32.638;-115.438;2022-09-09T13:59:16;10.35;;;2.13;;
61104;SDS011;46987;32.638;-115.438;2022-09-09T14:01:50;7.15;;;2.00;;
61104;SDS011;46987;32.638;-115.438;2022-09-09T14:04:18;11.20;;;1.88;;
61104;SDS011;46987;32.638;-115.438;2022-09-09T14:06:48;14.68;;;2.33;;
61104;SDS011;46987;32.638;-115.438;2022-09-09T14:09:16;9.73;;;1.77;;
61104;SDS011;46987;32.638;-115.438;2022-09-09T14:11:46;8.38;;;1.80;;
61104;SDS011;46987;32.638;-115.438;2022-09-09T14:14:13;7.72;;;1.85;;
61104;SDS011;46987;32.638;-115.438;2022-09-09T14:16:40;9.05;;;2.15;;
61104;SDS011;46987;32.638;-115.438;2022-09-09T14:19:08;8.02;;;2.13;;
61104;SDS011;46987;32.638;-115.438;2022-09-09T14:21:35;8.73;;;1.40;;
61104;SDS011;46987;32.638;-115.438;2022-09-09T14:24:03;9.55;;;2.22;;
61104;SDS011;46987;32.638;-115.438;2022-09-09T14:26:32;8.63;;;2.25;;
61104;SDS011;46987;32.638;-115.438;2022-09-09T14:28:59;13.48;;;2.28;;
61104;SDS011;46987;32.638;-115.438;2022-09-09T14:31:27;9.40;;;1.75;;
61104;SDS011;46987;32.638;-115.438;2022-09-09T14:33:54;8.52;;;2.17;;
61104;SDS011;46987;32.638;-115.438;2022-09-09T14:36:21;5.88;;;1.40;;
61104;SDS011;46987;32.638;-115.438;2022-09-09T14:38:50;5.22;;;1.70;;
61104;SDS011;46987;32.638;-115.438;2022-09-09T14:41:18;7.10;;;1.42;;
61104;SDS011;46987;32.638;-115.438;2022-09-09T14:43:48;6.72;;;1.95;;
61104;SDS011;46987;32.638;-115.438;2022-09-09T14:46:17;9.80;;;1.52;;
61104;SDS011;46987;32.638;-115.438;2022-09-09T14:48:45;7.40;;;1.30;;
61104;SDS011;46987;32.638;-115.438;2022-09-09T14:51:16;6.25;;;1.63;;
61104;SDS011;46987;32.638;-115.438;2022-09-09T14:53:46;4.43;;;1.00;;
61104;SDS011;46987;32.638;-115.438;2022-09-09T14:56:14;6.70;;;1.45;;
61104;SDS011;46987;32.638;-115.438;2022-09-09T14:58:44;5.03;;;1.30;;
61104;SDS011;46987;32.638;-115.438;2022-09-09T15:01:14;5.95;;;1.20;;